Time;durP1;ratioP1;P1;durP2;ratioP2;P2;SDS_P1;SDS_P2;PMS_P1;PMS_P2;Temp;Humidity;BMP_temperature;BMP_pressure;BME280_temperature;BME280_humidity;BME280_pressure;Samples;Min_cycle;Max_cycle;Signal;HPM_P1;HPM_P2
2022/08/19 00:01:48;;;;;;;2.28;1.45;;;;;;;20.63;60.62;101140.19;5025525;28;20120;-58
2022/08/19 00:04:17;;;;;;;3.65;1.40;;;;;;;20.55;60.86;101136.09;5024476;28;20029;-59
2022/08/19 00:06:45;;;;;;;6.70;2.13;;;;;;;20.42;61.59;101141.13;5023561;28;20034;-60
2022/08/19 00:09:14;;;;;;;4.13;1.60;;;;;;;20.74;61.09;101133.69;5029306;28;20064;-59
2022/08/19 00:11:41;;;;;;;3.58;1.65;;;;;;;20.69;60.67;101138.31;5019112;28;20026;-59
2022/08/19 00:14:09;;;;;;;3.80;1.67;;;;;;;20.68;60.41;101139.41;5022514;28;20049;-66
2022/08/19 00:16:38;;;;;;;4.55;1.63;;;;;;;20.65;61.12;101143.44;5019021;28;20071;-63
2022/08/19 00:19:05;;;;;;;4.85;1.92;;;;;;;20.81;61.21;101136.16;5030175;28;20021;-66
2022/08/19 00:21:31;;;;;;;3.65;2.08;;;;;;;20.86;60.54;101130.75;5031019;28;20037;-63
2022/08/19 00:23:58;;;;;;;2.67;1.50;;;;;;;20.81;60.37;101128.81;5018371;28;20137;-63
2022/08/19 00:26:26;;;;;;;3.92;1.60;;;;;;;20.98;60.57;101130.50;5043090;28;20042;-63
2022/08/19 00:28:52;;;;;;;5.43;1.88;;;;;;;20.82;60.44;101129.63;5017072;28;20151;-65
2022/08/19 00:31:18;;;;;;;2.05;1.40;;;;;;;20.82;60.15;101135.06;5020770;28;20104;-65
2022/08/19 00:33:44;;;;;;;5.50;1.88;;;;;;;20.76;60.64;101139.69;5019713;28;20033;-64
2022/08/19 00:36:11;;;;;;;4.50;1.60;;;;;;;20.80;60.35;101138.06;5027770;28;20029;-64
2022/08/19 00:38:42;;;;;;;3.97;1.58;;;;;;;20.42;62.05;101139.22;5031267;28;20025;-64
2022/08/19 00:41:20;;;;;;;2.85;1.90;;;;;;;20.63;61.44;101137.47;5027437;28;20041;-65
2022/08/19 00:44:04;;;;;;;3.70;2.40;;;;;;;20.92;60.88;101131.56;5014766;28;20029;-65
2022/08/19 00:46:32;;;;;;;4.50;1.75;;;;;;;20.80;60.73;101124.47;5014727;28;20076;-66
2022/08/19 00:49:00;;;;;;;3.88;1.67;;;;;;;20.80;60.71;101127.19;5047150;28;20104;-66
2022/08/19 00:51:28;;;;;;;6.00;2.08;;;;;;;20.57;61.85;101124.94;5054527;28;20029;-66
2022/08/19 00:53:58;;;;;;;4.60;2.10;;;;;;;20.33;62.78;101121.00;5044251;28;20104;-65
2022/08/19 00:56:26;;;;;;;4.13;1.90;;;;;;;20.16;63.88;101119.28;5034107;28;20064;-65
2022/08/19 00:58:55;;;;;;;3.85;2.03;;;;;;;20.11;63.99;101116.53;5034316;28;20033;-64
2022/08/19 01:01:22;;;;;;;5.65;2.03;;;;;;;20.25;64.35;101114.13;5038599;23;20046;-64
2022/08/19 01:03:48;;;;;;;6.88;2.53;;;;;;;19.76;65.41;101106.22;5034053;28;20060;-63
2022/08/19 01:06:14;;;;;;;6.75;2.88;;;;;;;19.57;66.86;101121.25;5050161;28;20025;-64
2022/08/19 01:08:40;;;;;;;5.50;2.65;;;;;;;19.58;66.52;101126.41;5034220;28;20021;-65
2022/08/19 01:11:07;;;;;;;5.85;2.83;;;;;;;19.55;67.05;101113.38;5033966;28;20041;-64
2022/08/19 01:13:35;;;;;;;9.43;2.97;;;;;;;19.47;66.83;101105.69;5033858;28;20032;-64
2022/08/19 01:16:06;;;;;;;6.20;3.08;;;;;;;19.63;67.28;101110.19;5033411;28;20022;-64
2022/08/19 01:18:38;;;;;;;10.80;3.22;;;;;;;19.28;67.96;101115.31;5033508;28;20021;-64
2022/08/19 01:21:24;;;;;;;8.05;3.67;;;;;;;19.31;68.26;101101.22;5034082;28;20029;-63
2022/08/19 01:23:51;;;;;;;9.18;3.60;;;;;;;19.35;68.01;101091.47;5031344;28;20029;-63
2022/08/19 01:26:21;;;;;;;9.93;3.33;;;;;;;19.51;67.32;101101.41;5032727;28;20554;-63
2022/08/19 01:28:50;;;;;;;6.07;3.60;;;;;;;19.20;68.01;101092.16;5030737;28;20483;-63
2022/08/19 01:31:21;;;;;;;7.75;3.80;;;;;;;19.25;68.43;101093.00;5030071;28;20033;-63
2022/08/19 01:33:49;;;;;;;7.60;3.78;;;;;;;19.01;68.96;101099.84;5022342;28;20040;-62
2022/08/19 01:36:28;;;;;;;8.73;4.28;;;;;;;19.04;68.94;101093.88;5013271;28;20066;-64
2022/08/19 01:38:55;;;;;;;8.65;3.67;;;;;;;19.12;68.79;101098.88;5013620;28;20045;-62
2022/08/19 01:41:23;;;;;;;9.77;4.18;;;;;;;18.97;69.65;101101.41;5013231;28;20026;-63
2022/08/19 01:43:51;;;;;;;9.57;3.97;;;;;;;18.76;70.24;101088.72;5013281;28;20030;-64
2022/08/19 01:46:18;;;;;;;4.43;3.55;;;;;;;18.86;70.06;101095.06;5013413;28;20061;-62
2022/08/19 01:48:45;;;;;;;6.70;3.83;;;;;;;18.92;70.23;101098.66;5013324;28;20033;-62
2022/08/19 01:51:12;;;;;;;7.72;3.63;;;;;;;18.69;70.31;101106.00;5013116;28;20088;-62
2022/08/19 01:53:39;;;;;;;8.35;3.30;;;;;;;18.76;70.58;101102.28;5011014;28;20030;-63
2022/08/19 01:56:06;;;;;;;8.32;3.00;;;;;;;18.60;71.49;101101.25;5011578;28;20046;-65
2022/08/19 01:58:41;;;;;;;12.43;3.17;;;;;;;18.60;71.65;101102.09;5024129;28;20028;-63
2022/08/19 02:01:07;;;;;;;7.65;2.33;;;;;;;18.48;71.52;101102.19;5012945;28;20069;-64
2022/08/19 02:03:36;;;;;;;4.65;2.72;;;;;;;18.31;71.96;101109.56;5012422;28;20396;-64
2022/08/19 02:06:05;;;;;;;5.18;2.35;;;;;;;18.23;72.53;101103.75;5013097;28;20084;-64
2022/08/19 02:08:32;;;;;;;3.83;2.50;;;;;;;18.07;73.18;101108.97;5012891;28;20471;-63
2022/08/19 02:10:59;;;;;;;5.88;2.38;;;;;;;18.36;71.88;101111.53;5012631;28;20033;-63
2022/08/19 02:13:25;;;;;;;6.53;2.22;;;;;;;18.44;71.69;101119.22;5022868;28;20029;-64
2022/08/19 02:15:52;;;;;;;3.92;2.17;;;;;;;18.34;72.36;101119.09;5032818;28;20104;-63
2022/08/19 02:18:18;;;;;;;5.70;2.67;;;;;;;18.11;73.24;101117.44;5027106;28;20120;-62
2022/08/19 02:20:47;;;;;;;6.45;2.22;;;;;;;17.85;73.61;101122.44;5008837;28;20045;-62
2022/08/19 02:23:14;;;;;;;6.75;2.40;;;;;;;17.81;74.53;101117.78;5010893;28;20053;-62
2022/08/19 02:25:41;;;;;;;8.55;2.70;;;;;;;17.79;73.94;101126.16;5012236;28;20032;-66
2022/08/19 02:28:08;;;;;;;4.78;2.00;;;;;;;17.48;75.45;101119.38;5012760;28;20487;-64
2022/08/19 02:30:34;;;;;;;5.35;2.45;;;;;;;17.72;74.83;101116.53;5012300;28;20462;-64
2022/08/19 02:33:01;;;;;;;12.43;3.17;;;;;;;17.78;74.48;101118.28;5012029;28;20105;-61
2022/08/19 02:35:27;;;;;;;6.18;2.70;;;;;;;17.55;75.56;101121.94;5035333;28;20478;-62
2022/08/19 02:40:38;;;;;;;6.95;2.30;;;;;;;17.50;75.08;101124.56;5012094;28;20439;-62
2022/08/19 02:43:07;;;;;;;5.97;2.45;;;;;;;17.59;75.38;101123.88;5012284;28;20068;-62
2022/08/19 02:45:42;;;;;;;4.00;2.20;;;;;;;17.42;75.71;101129.28;5012537;28;20030;-62
2022/08/19 02:48:09;;;;;;;7.88;2.70;;;;;;;17.19;76.88;101134.00;5043593;28;20028;-62
2022/08/19 02:50:39;;;;;;;9.07;2.40;;;;;;;17.12;76.92;101129.56;5012415;28;20099;-63
2022/08/19 02:53:08;;;;;;;6.13;2.47;;;;;;;16.91;77.86;101140.25;5011238;28;20041;-63
2022/08/19 02:55:34;;;;;;;5.55;2.38;;;;;;;16.69;78.84;101140.03;5012290;28;20056;-61
2022/08/19 02:58:01;;;;;;;8.20;2.75;;;;;;;16.78;79.08;101138.66;5011151;28;20125;-63
2022/08/19 03:00:27;;;;;;;7.05;2.83;;;;;;;16.78;78.84;101135.94;5011462;28;20038;-62
2022/08/19 03:02:54;;;;;;;3.97;2.15;;;;;;;16.83;78.06;101134.16;5010976;28;20400;-61
2022/08/19 03:05:27;;;;;;;4.80;2.20;;;;;;;16.86;78.11;101135.56;5004381;28;20131;-66
2022/08/19 03:07:53;;;;;;;5.43;2.22;;;;;;;16.81;78.06;101141.69;5010314;28;20045;-62
2022/08/19 03:10:20;;;;;;;2.55;2.15;;;;;;;16.78;77.99;101142.16;5012600;28;20410;-63
2022/08/19 03:12:46;;;;;;;3.75;2.20;;;;;;;16.63;78.29;101148.03;5010940;28;20487;-63
2022/08/19 03:15:12;;;;;;;7.95;2.47;;;;;;;16.63;78.58;101141.81;5010937;28;20070;-63
2022/08/19 03:17:43;;;;;;;4.63;2.22;;;;;;;16.64;78.01;101141.56;5011860;28;20392;-63
2022/08/19 03:20:10;;;;;;;4.75;2.30;;;;;;;16.50;78.54;101142.91;4995508;28;20528;-62
2022/08/19 03:22:36;;;;;;;5.38;2.38;;;;;;;16.53;78.59;101147.81;4978291;28;20049;-62
2022/08/19 03:25:03;;;;;;;4.45;2.65;;;;;;;16.58;78.05;101144.41;5009169;28;20038;-62
2022/08/19 03:27:30;;;;;;;4.63;2.10;;;;;;;16.63;77.73;101153.44;5011731;28;20117;-62
2022/08/19 03:29:56;;;;;;;4.82;2.10;;;;;;;16.49;78.56;101141.28;5011280;28;20022;-61
2022/08/19 03:32:22;;;;;;;2.28;1.92;;;;;;;16.47;78.81;101146.06;5014666;28;20119;-61
2022/08/19 03:34:50;;;;;;;4.82;2.30;;;;;;;16.58;78.08;101161.44;5011760;28;20383;-62
2022/08/19 03:37:16;;;;;;;5.63;2.95;;;;;;;16.40;78.95;101153.50;5012437;28;20103;-62
2022/08/19 03:39:43;;;;;;;6.35;2.92;;;;;;;16.43;78.86;101153.00;5025805;28;20511;-62
2022/08/19 03:42:10;;;;;;;8.52;2.60;;;;;;;16.48;78.97;101149.59;5011360;28;20037;-61
2022/08/19 03:44:37;;;;;;;7.57;3.10;;;;;;;16.51;79.09;101155.34;5011802;28;20030;-62
2022/08/19 03:47:05;;;;;;;4.30;2.35;;;;;;;16.50;79.06;101158.31;5011885;28;20404;-62
2022/08/19 03:49:34;;;;;;;4.57;2.47;;;;;;;16.58;78.65;101145.22;5011693;28;20492;-63
2022/08/19 03:52:01;;;;;;;5.25;2.88;;;;;;;16.58;78.75;101150.63;5011944;28;20037;-60
2022/08/19 03:54:28;;;;;;;5.80;2.60;;;;;;;16.58;78.44;101145.22;4989593;28;20392;-63
2022/08/19 03:56:56;;;;;;;5.80;2.80;;;;;;;16.50;79.29;101163.72;5009942;28;20034;-63
2022/08/19 03:59:32;;;;;;;6.22;3.03;;;;;;;16.45;79.57;101155.50;5010577;28;20041;-63
2022/08/19 04:02:01;;;;;;;4.38;2.67;;;;;;;16.44;79.82;101161.97;5010588;28;20107;-63
2022/08/19 04:04:28;;;;;;;6.65;3.05;;;;;;;16.52;79.78;101157.00;5013073;28;20022;-63
2022/08/19 04:06:56;;;;;;;5.28;3.10;;;;;;;16.54;79.40;101157.56;5015277;28;20502;-63
2022/08/19 04:09:22;;;;;;;4.85;2.45;;;;;;;16.49;79.60;101152.09;5015244;28;20068;-63
2022/08/19 04:11:53;;;;;;;4.35;2.88;;;;;;;16.58;79.43;101150.63;5013320;28;20048;-63
2022/08/19 04:14:25;;;;;;;3.85;2.50;;;;;;;16.66;79.06;101152.16;5013372;28;20033;-62
2022/08/19 04:16:52;;;;;;;4.03;2.75;;;;;;;16.63;78.90;101153.44;5019215;28;20172;-62
2022/08/19 04:19:20;;;;;;;4.97;3.45;;;;;;;16.46;79.57;101159.84;5014806;28;20053;-63
2022/08/19 04:21:49;;;;;;;7.82;3.38;;;;;;;16.27;79.85;101156.47;5027922;28;20044;-63
2022/08/19 04:24:16;;;;;;;4.72;3.25;;;;;;;16.17;80.04;101158.91;5033041;28;20103;-62
2022/08/19 04:26:43;;;;;;;4.57;3.13;;;;;;;16.11;80.57;101163.38;5034735;28;20037;-63
2022/08/19 04:29:24;;;;;;;10.50;3.00;;;;;;;16.00;81.40;101161.50;5032268;28;20038;-60
2022/08/19 04:31:52;;;;;;;4.05;2.63;;;;;;;16.08;81.22;101161.97;5028842;28;20037;-60
2022/08/19 04:34:24;;;;;;;4.57;3.15;;;;;;;16.09;80.99;101166.28;5022276;28;20040;-60
2022/08/19 04:36:53;;;;;;;4.63;3.10;;;;;;;15.97;81.42;101173.56;5028617;28;20410;-61
2022/08/19 04:39:23;;;;;;;4.32;3.15;;;;;;;16.01;81.52;101172.06;5034589;28;20026;-62
2022/08/19 04:44:35;;;;;;;4.82;3.00;;;;;;;16.07;81.02;101167.59;5014536;28;20117;-62
2022/08/19 04:47:05;;;;;;;6.32;3.47;;;;;;;16.03;80.91;101159.13;5012085;28;20030;-62
2022/08/19 04:49:31;;;;;;;4.60;2.88;;;;;;;15.99;81.31;101160.69;5014109;28;20447;-62
2022/08/19 04:51:57;;;;;;;3.72;2.88;;;;;;;15.95;81.51;101156.81;5009688;28;20790;-62
2022/08/19 04:54:25;;;;;;;5.65;2.90;;;;;;;15.78;82.26;101162.06;5015257;28;20106;-61
2022/08/19 04:56:53;;;;;;;8.77;2.53;;;;;;;15.90;81.60;101169.34;5010627;28;20403;-61
2022/08/19 04:59:20;;;;;;;4.85;2.72;;;;;;;15.79;82.66;101179.06;5014302;28;20097;-61
2022/08/19 05:01:49;;;;;;;5.97;2.95;;;;;;;15.67;83.45;101175.53;5023316;28;20061;-61
2022/08/19 05:04:18;;;;;;;3.55;2.35;;;;;;;15.48;84.67;101159.38;5030530;28;20495;-61
2022/08/19 05:06:46;;;;;;;5.10;2.60;;;;;;;15.60;83.62;101159.41;5013046;28;20064;-62
2022/08/19 05:09:14;;;;;;;4.40;2.22;;;;;;;15.62;83.30;101143.81;5013886;28;20018;-62
2022/08/19 05:11:40;;;;;;;6.13;2.47;;;;;;;15.65;83.04;101153.34;5013574;28;20029;-62
2022/08/19 05:14:07;;;;;;;6.53;2.33;;;;;;;15.80;82.14;101149.16;5013862;28;20074;-62
2022/08/19 05:16:34;;;;;;;4.43;2.25;;;;;;;15.73;82.08;101140.34;5013191;28;20054;-62
2022/08/19 05:24:30;;;;;;;4.72;2.40;;;;;;;15.74;nan;101133.06;5013831;28;20028;-62
2022/08/19 05:26:56;;;;;;;4.40;2.60;;;;;;;15.81;83.38;101131.06;5011760;28;20038;-62
2022/08/19 05:29:25;;;;;;;3.55;2.47;;;;;;;15.82;83.86;101141.66;5013004;28;20080;-61
2022/08/19 05:31:53;;;;;;;4.45;2.53;;;;;;;15.74;84.14;101135.75;5029709;28;20034;-62
2022/08/19 05:34:21;;;;;;;4.38;2.88;;;;;;;15.89;83.49;101130.75;5033115;28;20029;-62
2022/08/19 05:36:49;;;;;;;6.78;3.60;;;;;;;15.81;82.65;101121.09;5030384;28;20029;-62
2022/08/19 05:39:19;;;;;;;4.57;3.70;;;;;;;15.97;81.67;101130.38;5033330;28;20022;-62
2022/08/19 05:41:47;;;;;;;7.45;4.57;;;;;;;16.00;81.34;101124.53;5012010;28;20396;-62
2022/08/19 05:44:14;;;;;;;5.15;4.05;;;;;;;15.94;81.52;101130.03;5013164;28;20018;-62
2022/08/19 05:46:42;;;;;;;7.43;4.78;;;;;;;15.97;81.61;101124.97;5011639;28;20041;-62
2022/08/19 05:49:08;;;;;;;4.90;4.15;;;;;;;15.85;82.10;101129.56;5006806;28;20092;-61
2022/08/19 05:51:37;;;;;;;5.07;3.50;;;;;;;15.87;82.43;101132.84;5012717;28;20045;-62
2022/08/19 05:54:05;;;;;;;5.80;3.78;;;;;;;15.99;81.86;101130.97;5009804;28;20088;-62
2022/08/19 05:56:36;;;;;;;4.05;2.65;;;;;;;15.99;82.09;101135.53;5010748;28;20591;-62
2022/08/19 05:59:03;;;;;;;5.60;1.95;;;;;;;16.00;81.89;101131.81;5013254;28;20094;-62
2022/08/19 06:01:30;;;;;;;6.78;3.25;;;;;;;16.00;82.53;101138.03;5011040;28;20061;-61
2022/08/19 06:03:56;;;;;;;4.78;2.15;;;;;;;15.89;82.42;101136.13;5011661;28;20254;-62
2022/08/19 06:06:22;;;;;;;3.03;2.25;;;;;;;16.01;82.42;101128.88;5009921;28;20030;-62
2022/08/19 06:08:50;;;;;;;3.85;2.38;;;;;;;16.06;81.60;101136.25;5012886;28;20126;-62
2022/08/19 06:11:23;;;;;;;4.60;2.05;;;;;;;16.07;81.32;101136.00;5010158;28;20025;-62
2022/08/19 06:13:52;;;;;;;3.92;2.65;;;;;;;16.03;81.35;101134.84;5012776;28;20022;-61
2022/08/19 06:16:22;;;;;;;3.47;2.20;;;;;;;16.06;81.51;101137.09;5008990;28;20541;-61
2022/08/19 06:18:53;;;;;;;2.83;2.03;;;;;;;16.04;81.54;101135.66;5012779;28;20094;-62
2022/08/19 06:21:22;;;;;;;5.55;2.20;;;;;;;15.95;81.85;101127.09;5011720;28;20101;-62
2022/08/19 06:23:50;;;;;;;3.40;2.28;;;;;;;15.93;81.81;101140.00;5012276;28;20026;-62
2022/08/19 06:26:17;;;;;;;3.58;2.17;;;;;;;15.97;81.56;101133.06;5010262;28;20184;-62
2022/08/19 06:28:46;;;;;;;3.83;2.10;;;;;;;16.05;81.63;101127.34;5012472;28;20037;-61
2022/08/19 06:31:15;;;;;;;3.65;1.92;;;;;;;16.09;81.11;101133.91;5009328;28;20022;-61
2022/08/19 06:33:43;;;;;;;2.47;1.92;;;;;;;15.95;81.96;101134.38;5011151;28;20029;-61
2022/08/19 06:36:29;;;;;;;3.63;2.47;;;;;;;16.10;81.39;101127.47;5010503;28;20025;-61
2022/08/19 06:38:59;;;;;;;3.47;1.65;;;;;;;16.05;81.09;101124.66;5012491;28;20044;-61
2022/08/19 06:41:26;;;;;;;1.85;1.42;;;;;;;16.02;81.40;101127.78;5010174;28;20028;-61
2022/08/19 06:43:54;;;;;;;2.53;1.92;;;;;;;16.21;80.23;101125.81;5009281;28;20117;-61
2022/08/19 06:46:21;;;;;;;2.88;1.80;;;;;;;16.08;80.49;101131.44;5012178;28;20030;-61
2022/08/19 06:48:48;;;;;;;2.90;2.38;;;;;;;16.02;80.77;101124.28;5019852;28;20034;-61
2022/08/19 06:51:18;;;;;;;2.13;1.92;;;;;;;16.05;80.37;101121.94;5012308;28;20400;-62
2022/08/19 06:53:49;;;;;;;3.15;2.08;;;;;;;15.97;80.38;101129.56;5010445;28;20025;-61
2022/08/19 06:56:18;;;;;;;2.63;2.00;;;;;;;15.78;81.51;101126.16;5012034;28;20392;-61
2022/08/19 06:58:45;;;;;;;2.47;1.77;;;;;;;15.81;81.50;101128.38;5010048;28;20026;-61
2022/08/19 07:01:11;;;;;;;4.10;1.80;;;;;;;15.86;81.69;101128.50;5011610;28;20465;-61
2022/08/19 07:03:39;;;;;;;3.85;2.45;;;;;;;15.87;81.24;101124.75;5010362;28;20112;-62
2022/08/19 07:06:12;;;;;;;3.22;2.42;;;;;;;15.98;81.01;101123.91;5011908;28;20116;-61
2022/08/19 07:08:42;;;;;;;4.70;2.97;;;;;;;15.99;80.95;101136.38;5010693;28;20506;-62
2022/08/19 07:11:10;;;;;;;5.55;2.75;;;;;;;15.94;81.00;101130.88;5011891;28;20480;-61
2022/08/19 07:13:37;;;;;;;3.28;2.10;;;;;;;15.92;80.73;101122.16;5009115;28;20373;-62
2022/08/19 07:16:08;;;;;;;4.18;2.05;;;;;;;15.78;81.02;101123.47;5009929;28;20109;-61
2022/08/19 07:18:35;;;;;;;2.25;1.50;;;;;;;15.86;80.75;101124.97;5009886;28;20042;-62
2022/08/19 07:21:07;;;;;;;2.20;1.60;;;;;;;15.58;81.29;101129.94;5008493;28;20022;-61
2022/08/19 07:23:33;;;;;;;2.47;1.52;;;;;;;15.40;82.54;101124.66;5010846;28;20041;-61
2022/08/19 07:28:34;;;;;;;1.90;1.30;;;;;;;15.55;82.17;101118.81;5067886;28;20044;-62
2022/08/19 07:31:01;;;;;;;2.08;1.42;;;;;;;15.59;82.29;101122.69;5069175;28;20284;-62
2022/08/19 07:33:29;;;;;;;2.47;1.15;;;;;;;15.69;81.22;101117.56;5069211;28;20039;-62
2022/08/19 07:35:56;;;;;;;4.43;1.63;;;;;;;15.60;81.65;101121.63;5071241;28;20035;-62
2022/08/19 07:38:22;;;;;;;4.68;2.45;;;;;;;15.63;82.52;101118.50;5070300;28;20032;-62
2022/08/19 07:40:48;;;;;;;3.22;2.33;;;;;;;15.65;82.21;101116.38;5075463;28;20056;-62
2022/08/19 07:43:15;;;;;;;3.47;2.42;;;;;;;15.65;82.54;101115.56;5072942;28;20032;-61
2022/08/19 07:45:42;;;;;;;2.67;1.90;;;;;;;15.46;83.13;101126.41;5072696;28;20463;-62
2022/08/19 07:48:08;;;;;;;2.88;2.42;;;;;;;15.51;83.32;101123.84;5074360;28;20086;-62
2022/08/19 07:50:34;;;;;;;3.47;2.30;;;;;;;15.56;83.43;101125.84;5073611;28;20390;-62
2022/08/19 07:53:00;;;;;;;3.38;2.47;;;;;;;15.64;82.97;101130.94;5072202;28;20020;-62
2022/08/19 07:55:27;;;;;;;4.00;1.77;;;;;;;15.53;83.03;101132.53;5074908;28;20025;-62
2022/08/19 07:57:53;;;;;;;3.55;1.50;;;;;;;15.62;82.49;101130.31;5073150;28;20087;-62
2022/08/19 08:00:19;;;;;;;3.25;1.50;;;;;;;15.72;82.40;101127.09;5080762;28;20107;-62
2022/08/19 08:02:45;;;;;;;2.03;1.25;;;;;;;15.66;82.00;101120.75;5074801;28;20024;-62
2022/08/19 08:10:41;;;;;;;2.58;1.23;;;;;;;15.67;81.25;101124.28;5075153;28;20023;-62
2022/08/19 08:13:08;;;;;;;2.15;1.15;;;;;;;15.59;81.12;101114.59;5074943;28;20025;-62
2022/08/19 08:15:36;;;;;;;2.60;0.95;;;;;;;15.67;80.51;101108.06;5071932;28;20029;-62
2022/08/19 08:18:03;;;;;;;1.63;0.80;;;;;;;15.46;81.78;101106.72;5052464;28;20378;-62
2022/08/19 08:20:29;;;;;;;1.85;1.30;;;;;;;15.49;82.05;101099.00;5052568;28;20435;-62
2022/08/19 08:25:40;;;;;;;2.80;1.13;;;;;;;15.42;81.92;101094.75;5034341;28;20028;-62
2022/08/19 08:28:07;;;;;;;2.72;1.48;;;;;;;15.35;82.28;101089.44;5051775;28;20286;-62
2022/08/19 08:30:35;;;;;;;1.98;1.10;;;;;;;15.39;82.31;101090.66;5039289;28;20048;-62
2022/08/19 08:33:01;;;;;;;2.75;1.45;;;;;;;15.54;81.54;101082.09;5038485;28;20024;-62
2022/08/19 08:35:28;;;;;;;2.63;1.38;;;;;;;15.54;81.52;101087.47;5039765;28;20033;-62
2022/08/19 08:37:55;;;;;;;1.95;1.40;;;;;;;15.50;82.06;101081.75;5043189;28;20017;-62
2022/08/19 08:40:49;;;;;;;3.33;1.60;;;;;;;15.54;81.72;101080.22;5041851;28;20100;-62
2022/08/19 08:43:28;;;;;;;1.92;1.20;;;;;;;15.56;81.54;101083.50;5044864;28;20493;-62
2022/08/19 08:46:26;;;;;;;3.92;1.50;;;;;;;15.49;81.62;101081.97;5064972;28;20422;-62
2022/08/19 08:49:18;;;;;;;1.85;1.25;;;;;;;15.38;82.15;101078.22;5037015;28;20174;-62
2022/08/19 08:51:49;;;;;;;2.13;1.42;;;;;;;15.44;82.09;101074.59;5033875;28;20049;-62
2022/08/19 08:54:20;;;;;;;2.33;1.30;;;;;;;15.47;82.26;101074.09;5043393;28;20040;-62
2022/08/19 08:56:49;;;;;;;2.30;1.45;;;;;;;15.53;81.73;101077.75;5054147;28;20390;-62
2022/08/19 08:59:25;;;;;;;2.22;1.30;;;;;;;15.46;82.22;101074.34;5047074;28;20082;-62
2022/08/19 09:01:51;;;;;;;3.33;1.27;;;;;;;15.39;82.28;101069.06;5049389;28;20489;-62
2022/08/19 09:04:18;;;;;;;1.52;1.30;;;;;;;15.48;81.83;101069.53;5049252;28;20049;-62
2022/08/19 09:06:44;;;;;;;1.75;1.20;;;;;;;15.55;81.44;101062.16;5043131;28;20037;-62
2022/08/19 09:09:45;;;;;;;1.50;1.08;;;;;;;15.48;81.30;101067.66;5036817;28;20030;-62
2022/08/19 09:12:31;;;;;;;2.60;1.23;;;;;;;15.43;81.47;101078.31;5031956;28;20041;-62
2022/08/19 09:15:03;;;;;;;3.08;1.40;;;;;;;15.36;81.49;101071.38;5054218;28;20025;-62
2022/08/19 09:17:30;;;;;;;3.13;1.63;;;;;;;15.37;81.46;101070.34;5052298;28;20037;-62
2022/08/19 09:20:08;;;;;;;2.55;1.50;;;;;;;15.31;81.60;101064.81;5053521;28;20032;-62
2022/08/19 09:22:36;;;;;;;1.83;1.00;;;;;;;15.32;81.00;101068.31;5053008;28;20543;-62
2022/08/19 09:25:02;;;;;;;1.63;1.30;;;;;;;15.34;80.96;101065.41;5050550;28;20029;-62
2022/08/19 09:27:29;;;;;;;2.75;1.27;;;;;;;15.30;80.90;101063.16;5035369;28;20057;-62
2022/08/19 09:29:55;;;;;;;1.48;1.00;;;;;;;15.30;80.54;101051.56;5053406;28;20112;-62
2022/08/19 09:32:23;;;;;;;4.10;1.52;;;;;;;15.27;80.87;101052.88;5053044;28;20025;-61
2022/08/19 09:34:49;;;;;;;3.83;1.35;;;;;;;15.21;81.42;101044.84;5053571;28;20033;-61
2022/08/19 09:37:16;;;;;;;1.70;1.10;;;;;;;15.16;81.60;101050.16;5053018;28;20029;-62
2022/08/19 09:39:42;;;;;;;1.63;1.08;;;;;;;15.15;81.75;101051.19;5052917;28;20380;-62
2022/08/19 09:42:13;;;;;;;2.30;1.10;;;;;;;15.17;81.62;101054.47;5052815;28;20029;-62
2022/08/19 09:44:43;;;;;;;2.20;0.80;;;;;;;15.17;81.54;101058.00;5053552;28;20036;-61
2022/08/19 09:47:11;;;;;;;1.45;1.20;;;;;;;15.21;81.38;101058.34;5052606;28;20119;-61
2022/08/19 09:49:38;;;;;;;1.70;1.10;;;;;;;15.21;81.33;101050.25;5053014;28;20017;-62
2022/08/19 09:52:07;;;;;;;2.40;1.35;;;;;;;15.23;81.13;101046.28;5044065;28;20025;-62
2022/08/19 09:54:33;;;;;;;3.38;2.20;;;;;;;15.17;82.20;101049.09;5032486;28;20475;-61
2022/08/19 09:57:00;;;;;;;3.33;2.30;;;;;;;15.22;82.37;101049.22;5032846;28;20029;-61
2022/08/19 09:59:28;;;;;;;2.90;2.10;;;;;;;15.20;81.91;101046.72;5032643;28;20021;-61
2022/08/19 10:01:54;;;;;;;2.55;2.33;;;;;;;15.22;82.27;101038.44;5049452;28;20025;-61
2022/08/19 10:04:21;;;;;;;4.53;2.47;;;;;;;15.12;82.16;101043.56;5050675;28;20024;-62
2022/08/19 10:06:49;;;;;;;3.42;2.30;;;;;;;15.16;82.29;101044.75;5031941;28;20083;-61
2022/08/19 10:09:17;;;;;;;3.17;2.30;;;;;;;15.13;82.26;101037.94;5047600;28;20113;-61
2022/08/19 10:11:48;;;;;;;2.08;1.65;;;;;;;15.12;81.74;101044.38;5039405;28;20084;-61
2022/08/19 10:14:16;;;;;;;2.40;1.50;;;;;;;14.99;81.83;101049.97;5062713;28;20028;-61
2022/08/19 10:16:43;;;;;;;2.10;1.33;;;;;;;15.05;81.76;101047.19;5069228;28;20020;-61
2022/08/19 10:19:09;;;;;;;1.42;1.20;;;;;;;15.05;81.48;101046.38;5070568;28;20034;-61
2022/08/19 10:21:36;;;;;;;1.80;1.30;;;;;;;14.96;81.43;101051.25;5070745;28;20034;-61
2022/08/19 10:24:05;;;;;;;4.78;1.40;;;;;;;14.92;81.56;101044.66;5044228;28;20474;-61
2022/08/19 10:26:36;;;;;;;1.27;1.13;;;;;;;15.02;81.35;101044.13;5069351;28;20379;-61
2022/08/19 10:29:04;;;;;;;1.13;0.98;;;;;;;14.82;82.45;101047.09;5072228;28;20082;-61
2022/08/19 10:31:33;;;;;;;2.13;1.45;;;;;;;14.85;82.22;101046.66;5052374;28;20091;-62
2022/08/19 10:34:00;;;;;;;1.98;1.40;;;;;;;14.97;82.01;101039.41;5052099;28;20075;-61
2022/08/19 10:36:33;;;;;;;5.10;2.10;;;;;;;14.85;82.80;101027.78;5034487;28;20028;-62
2022/08/19 10:39:02;;;;;;;3.00;2.67;;;;;;;14.77;83.61;101030.81;5032044;28;20037;-62
2022/08/19 10:41:31;;;;;;;2.80;2.17;;;;;;;14.90;83.53;101038.69;5032436;28;20103;-62
2022/08/19 10:44:06;;;;;;;5.35;2.17;;;;;;;14.91;83.75;101032.25;5039729;28;20501;-61
2022/08/19 10:46:36;;;;;;;3.22;2.50;;;;;;;14.82;84.40;101041.69;5048798;28;20116;-61
2022/08/19 10:49:04;;;;;;;2.65;2.00;;;;;;;14.75;84.74;101032.91;5032102;28;20044;-61
2022/08/19 10:54:17;;;;;;;2.25;1.95;;;;;;;14.86;84.47;101034.81;5071998;28;20093;-61
2022/08/19 10:56:53;;;;;;;3.97;2.28;;;;;;;14.85;84.23;101027.78;5055351;28;20068;-61
2022/08/19 10:59:27;;;;;;;2.15;1.67;;;;;;;14.75;84.73;101024.81;5042769;28;20029;-61
2022/08/19 11:01:58;;;;;;;2.03;1.70;;;;;;;14.74;84.89;101028.56;5045584;28;20040;-61
2022/08/19 11:04:25;;;;;;;2.92;1.80;;;;;;;14.83;84.20;101019.13;5051903;28;20036;-61
2022/08/19 11:06:51;;;;;;;3.70;1.77;;;;;;;14.82;84.35;101025.53;5064189;28;20042;-62
2022/08/19 11:09:27;;;;;;;2.10;1.52;;;;;;;14.86;84.05;101029.41;5071783;28;20500;-62
2022/08/19 11:11:54;;;;;;;4.75;2.00;;;;;;;14.82;83.91;101024.72;5045333;28;20030;-62
2022/08/19 11:14:22;;;;;;;3.65;2.35;;;;;;;14.84;83.83;101031.53;5026125;28;20029;-61
2022/08/19 11:16:49;;;;;;;3.25;1.90;;;;;;;14.85;83.99;101024.28;5071590;28;20474;-61
2022/08/19 11:19:18;;;;;;;5.05;2.00;;;;;;;14.81;83.87;101015.81;5035570;28;20495;-62
2022/08/19 11:21:48;;;;;;;4.85;2.42;;;;;;;14.88;84.07;101027.34;5071464;28;20446;-62
2022/08/19 11:24:17;;;;;;;5.15;2.40;;;;;;;14.85;84.59;101025.09;5068435;28;20078;-62
2022/08/19 11:26:44;;;;;;;4.15;2.42;;;;;;;14.77;84.73;101028.94;5050921;28;20110;-62
2022/08/19 11:29:13;;;;;;;5.93;2.90;;;;;;;14.77;85.35;101031.63;5043710;28;20363;-63
2022/08/19 11:31:43;;;;;;;4.72;2.72;;;;;;;14.88;84.54;101024.66;5053674;28;20531;-62
2022/08/19 11:34:13;;;;;;;14.05;3.08;;;;;;;14.73;84.87;101024.22;5051620;28;20596;-62
2022/08/19 11:36:43;;;;;;;5.13;2.30;;;;;;;14.68;85.60;101029.47;5051288;28;20048;-62
2022/08/19 11:39:11;;;;;;;6.43;3.00;;;;;;;14.65;85.19;101027.22;5047297;28;20036;-62
2022/08/19 11:41:38;;;;;;;5.85;2.25;;;;;;;14.87;84.51;101033.75;5048691;28;20025;-62
2022/08/19 11:44:07;;;;;;;6.65;2.83;;;;;;;14.95;84.16;101028.06;5051511;28;20016;-62
2022/08/19 11:46:35;;;;;;;5.35;2.40;;;;;;;14.82;84.07;101030.91;5049772;28;20387;-62
2022/08/19 11:49:04;;;;;;;5.60;2.40;;;;;;;14.81;83.25;101028.47;5051517;28;20028;-62
2022/08/19 11:51:31;;;;;;;4.35;2.60;;;;;;;14.77;83.13;101026.25;5051530;28;20025;-62
2022/08/19 11:53:59;;;;;;;4.55;2.28;;;;;;;14.72;83.80;101028.81;5051899;28;20033;-62
2022/08/19 11:56:26;;;;;;;3.20;2.10;;;;;;;14.74;84.29;101023.19;5044643;28;20033;-62